Fall City, Washington
Current Conditions -  °F | °C
As of 6:53 PM on Friday 21 Nov 2014 (Local Time) from KRNT Reporting Station
Light Rain Light Rain  
Wind Chill: 48°   Ceiling: 1600
Heat Index: 48°   Visibility: 10mi
Dew Point: 47°   Wind: 3mph
Humidity: 96%   Direction: NA
Pressure: 29.33"   Gusts: NA
Location:  47.57°N, 121.89°W
Report Text: KRNT 220253Z VRB03KT 10SM -RA BKN016 OVC021 09/08 A2933 RMK AO2 SLP935 P0002 60013 T00890083 55014
Loading
Personal Weather Stations






























Interactive Weather Map New forecast layout! Learn more

10-Day Weather Forecast

Advertisements
Track Severe Weather on mobile